TFFR/PTP METAR and TAF weather

Enter ICAO airport designator
Station Type Date Time Source
TFFR METAR 2019/10/21 02:00 UTC NOAA

TFFR 210200Z AUTO 07006KT 040V110 9999 SCT024 SCT029 BKN037 26/23 Q1014 TEMPO 4000 SHRA BKN015TCU


Station Type Date Time Source
TFFR Decoded METAR 2019/10/21 02:00 UTC NOAA

Le Raizet, Guadeloupe, Guadeloupe (TFFR) 16-16N 061-31W 11M
Oct 20, 2019 - 10:00 PM EDT / 2019.10.21 0200 UTC
Wind: from the ENE (070 degrees) at 7 MPH (6 KT) (direction variable):0
Visibility: greater than 7 mile(s):0
Sky conditions: mostly cloudy
Weather: Towering cumulus clouds observed
Temperature: 78 F (26 C)
Dew Point: 73 F (23 C)
Relative Humidity: 83%
Pressure (altimeter): 29.94 in. Hg (1014 hPa)
ob: TFFR 210200Z AUTO 07006KT 040V110 9999 SCT024 SCT029 BKN037 26/23 Q1014 TEMPO 4000 SHRA BKN015TCU
cycle: 2

Station Type Date Time Source
TFFR TAF 2019/10/20 18:53 UTC NOAA

TAF TFFR 201600Z 2018/2118 08012KT 9999 SCT035 BKN050 PROB30
TEMPO 2100/2118 4000 SHRA BKN015TCU PROB40
TEMPO 2115/2118 2000 SHRA FEW012CB BKN015TCU

Example: see airport list